Flight Track Log - Related Links

Times and Time Zones

All times are in EDT time to prevent confusion due to time zone crossing. See the DAL268 flight status page for this flight to view local times or setup timezone preferences in your user account.

Time Position Orientation Groundspeed Altitude Reporting Facility
EDT Latitude Longitude Course Direction KTS MPH feet Rate Location/Type
Mon 11:52:42 PM 40.6260 -73.7730 118° Southeast 173 199 300  Level FlightAware ADS-B
Mon 11:53:02 PM 40.6140 -73.7560 133° Southeast 185 213 800 1,333 Climbing FlightAware ADS-B
Mon 11:53:27 PM 40.5960 -73.7360 140° Southeast 210 242 1,300 982 Climbing FlightAware ADS-B
Mon 11:53:57 PM 40.5750 -73.7070 134° Southeast 239 275 1,700 873 Climbing FlightAware ADS-B
Mon 11:54:22 PM 40.5690 -73.6740 103° East 263 303 2,100 1,636 Climbing FlightAware ADS-B
Mon 11:54:52 PM 40.5710 -73.6210 87° East 276 318 3,200 1,964 Climbing FlightAware ADS-B
Mon 11:55:17 PM 40.5670 -73.5810 97° East 285 328 3,900 1,680 Climbing FlightAware ADS-B
Mon 11:55:42 PM 40.5550 -73.5370 110° East 298 343 4,600 2,093 Climbing FlightAware ADS-B
Mon 11:56:00 PM 40.5418 -73.5038 118° Southeast 302 348 5,400 2,471 Climbing FlightAware ADS-B
Mon 11:56:16 PM 40.5324 -73.4768 115° Southeast 306 352 6,000 2,625 Climbing FlightAware ADS-B
Mon 11:56:32 PM 40.5244 -73.4499 111° Southeast 307 353 6,800 2,813 Climbing FlightAware ADS-B
Mon 11:56:48 PM 40.5163 -73.4220 111° Southeast 308 354 7,500 2,625 Climbing FlightAware ADS-B
Mon 11:57:04 PM 40.5078 -73.3936 111° Southeast 310 357 8,200 2,545 Climbing FlightAware ADS-B
Mon 11:57:21 PM 40.4984 -73.3628 112° Southeast 313 360 8,900 2,824 Climbing FlightAware ADS-B
Mon 11:57:38 PM 40.4895 -73.3329 111° Southeast 311 358 9,800 1,959 Climbing FlightAware ADS-B
Mon 11:58:10 PM 40.4718 -73.2767 112° Southeast 337 388 10,500 1,182 Climbing FlightAware ADS-B
Mon 11:58:44 PM 40.4513 -73.2064 111° Southeast 371 427 11,100 1,273 Climbing FlightAware ADS-B
Mon 11:59:16 PM 40.4309 -73.1369 111° Southeast 393 452 11,900 1,875 Climbing FlightAware ADS-B
Mon 11:59:48 PM 40.4092 -73.0667 112° Southeast 399 459 13,100 2,045 Climbing FlightAware ADS-B
Tue 12:00:00 AM 40.4005 -73.0399 113° Southeast 406 467 13,400 1,429 Climbing FlightAware ADS-B
Tue 12:00:09 AM 40.3944 -73.0176 110° East 413 475 13,600 1,737 Climbing FlightAware ADS-B
Tue 12:00:38 AM 40.3897 -72.9451 95° East 421 484 14,500 2,000 Climbing FlightAware ADS-B
Tue 12:01:09 AM 40.4072 -72.8703 73° East 425 489 15,600 2,226 Climbing FlightAware ADS-B
Tue 12:01:40 AM 40.4282 -72.7929 70° East 430 495 16,800 2,066 Climbing FlightAware ADS-B
Tue 12:02:10 AM 40.4474 -72.7182 71° East 438 504 17,700 1,600 Climbing FlightAware ADS-B
Tue 12:02:40 AM 40.4672 -72.6415 71° East 448 516 18,400 1,475 Climbing FlightAware ADS-B
Tue 12:03:11 AM 40.4880 -72.5617 71° East 459 528 19,200 1,548 Climbing FlightAware ADS-B
Tue 12:03:42 AM 40.5097 -72.4781 71° East 466 536 20,000 1,452 Climbing FlightAware ADS-B
Tue 12:04:13 AM 40.5309 -72.3965 71° East 474 545 20,700 1,500 Climbing FlightAware ADS-B
Tue 12:04:46 AM 40.5545 -72.3058 71° East 479 551 21,600 1,619 Climbing FlightAware ADS-B
Tue 12:05:16 AM 40.5764 -72.2205 71° East 484 557 22,400 1,574 Climbing FlightAware ADS-B
Tue 12:05:47 AM 40.5983 -72.1356 71° East 488 562 23,200 1,451 Climbing FlightAware ADS-B
Tue 12:06:47 AM 40.6410 -71.9670 71° East 495 570 24,600 1,408 Climbing FlightAware ADS-B
Tue 12:07:25 AM 40.6696 -71.8560 71° East 500 575 25,500 1,304 Climbing FlightAware ADS-B
Tue 12:07:56 AM 40.6925 -71.7651 72° East 506 582 26,100 1,169 Climbing FlightAware ADS-B
Tue 12:08:42 AM 40.7250 -71.6380 71° East 510 587 27,000 1,075 Climbing FlightAware ADS-B
Tue 12:09:42 AM 40.7700 -71.4580 72° East 519 597 28,000 571 Climbing FlightAware ADS-B
Tue 12:10:27 AM 40.8010 -71.3380 71° East 519 597 28,000  Level FlightAware ADS-B
Tue 12:11:07 AM 40.8270 -71.2360 71° East 519 597 28,000  Level FlightAware ADS-B
Tue 12:11:47 AM 40.8540 -71.1340 71° East 519 597 28,000  Level FlightAware ADS-B
Tue 12:12:37 AM 40.8870 -71.0070 71° East 519 597 28,000 2,250 Level FlightAware ADS-B
Tue 12:13:07 AM 40.9190 -70.8510 75° East 509 586 31,000 2,118 Climbing FlightAware ADS-B
Tue 12:14:02 AM 40.9580 -70.6870 72° East 508 585 31,000  Level FlightAware ADS-B
Tue 12:14:37 AM 40.9810 -70.5910 72° East 508 585 31,000  Level FlightAware ADS-B
Tue 12:15:17 AM 41.0120 -70.4650 72° East 508 585 31,000  Level FlightAware ADS-B
Tue 12:16:07 AM 41.0430 -70.3300 73° East 508 585 31,000  Level FlightAware ADS-B
Tue 12:16:47 AM 41.0750 -70.1980 72° East 507 583 31,000  Level FlightAware ADS-B
Tue 12:17:22 AM 41.0970 -70.1030 73° East 508 585 31,000  Level FlightAware ADS-B
Tue 12:18:07 AM 41.1280 -69.9690 73° East 508 585 31,000  Level FlightAware ADS-B
Tue 12:18:47 AM 41.1520 -69.8670 73° East 508 585 31,000  Level FlightAware ADS-B
Tue 12:19:32 AM 41.1890 -69.7070 73° East 510 587 31,000 -63 Level FlightAware ADS-B
Tue 12:20:22 AM 41.2240 -69.5560 73° East 509 586 30,900  Descending FlightAware ADS-B
Tue 12:21:12 AM 41.2560 -69.4170 73° East 509 586 31,000 63 Climbing FlightAware ADS-B
Tue 12:21:57 AM 41.2870 -69.2830 73° East 509 586 31,000  Level FlightAware ADS-B
Tue 12:22:37 AM 41.3100 -69.1810 73° East 509 586 31,000  Level FlightAware ADS-B
Tue 12:23:17 AM 41.3330 -69.0790 73° East 509 586 31,000  Level FlightAware ADS-B
Tue 12:23:57 AM 41.3570 -68.9770 73° East 509 586 31,000 -107 Level FlightAware ADS-B
Tue 12:24:13 AM 41.3811 -68.8708 73° East 501 577 30,900 -79 Descending Boston Center
Tue 12:25:13 AM 41.4211 -68.6914 73° East 501 577 30,900  Level Boston Center
Tue 12:26:13 AM 41.4586 -68.5092 75° East 501 577 30,900  Level Boston Center
Tue 12:27:13 AM 41.5003 -68.3292 73° East 501 577 30,900  Level Boston Center
Tue 12:28:13 AM 41.5394 -68.1489 74° East 509 586 30,900  Level Boston Center
Tue 12:29:13 AM 41.5836 -67.9461 74° East 504 580 30,900  Level Boston Center
Tue 12:30:13 AM 41.6200 -67.7656 75° East 504 580 30,900  Level Boston Center
Tue 12:31:14 AM 41.6603 -67.5847 73° East 504 580 30,900  Level Boston Center
Tue 12:32:13 AM 41.6983 -67.4067 74° East 504 580 30,900  Level Boston Center
Tue 12:33:13 AM 41.7308 -67.2481 75° East 504 580 30,900  Level Boston Center
Tue 12:34:00 AM 41.7500 -67.0833 81° East 500 575 30,900  Level Moncton Center
Tue 12:35:00 AM 41.8000 -66.9000 70° East 500 575 30,900  Level Moncton Center
Tue 12:36:00 AM 41.8333 -66.7333 75° East 500 575 30,900  Level Moncton Center
Tue 12:37:00 AM 41.9000 -66.5500 64° Northeast 490 564 30,900  Level Moncton Center
Tue 12:38:00 AM 41.9333 -66.4000 73° East 490 564 30,900  Level Moncton Center
Tue 12:39:00 AM 41.9833 -66.2000 71° East 500 575 30,900  Level Moncton Center
Tue 12:40:00 AM 42.0333 -66.0333 68° East 500 575 30,900  Level Moncton Center
Tue 12:41:00 AM 42.0667 -65.8333 77° East 500 575 30,900  Level Moncton Center
Tue 12:42:00 AM 42.1333 -65.6833 59° Northeast 500 575 30,900  Level Moncton Center
Tue 12:43:00 AM 42.1667 -65.5000 76° East 500 575 30,900  Level Moncton Center
Tue 12:44:00 AM 42.2167 -65.3167 70° East 510 587 30,900  Level Moncton Center
Tue 12:45:00 AM 42.2667 -65.1333 70° East 500 575 30,900  Level Moncton Center
Tue 12:46:00 AM 42.3000 -64.9667 75° East 500 575 30,900  Level Moncton Center
Tue 12:47:00 AM 42.3500 -64.7833 70° East 510 587 30,900  Level Moncton Center
Tue 12:48:00 AM 42.4000 -64.6000 70° East 510 587 30,900  Level Moncton Center
Tue 12:49:00 AM 42.4333 -64.4167 76° East 500 575 30,900  Level Moncton Center
Tue 12:50:00 AM 42.4833 -64.2333 70° East 510 587 30,900  Level Moncton Center
Tue 12:51:00 AM 42.5333 -64.0500 70° East 500 575 30,900  Level Moncton Center
Tue 12:52:00 AM 42.5667 -63.8833 75° East 500 575 30,900  Level Moncton Center
Tue 12:53:00 AM 42.6167 -63.7000 70° East 500 575 30,900  Level Moncton Center
Tue 12:54:00 AM 42.6667 -63.5167 70° East 500 575 30,900  Level Moncton Center
Tue 12:55:00 AM 42.7000 -63.3333 76° East 510 587 30,900 500 Level Moncton Center
Tue 12:56:00 AM 42.7500 -63.1500 70° East 510 587 31,900 1,000 Climbing Moncton Center
Tue 12:57:00 AM 42.7833 -62.9667 76° East 510 587 32,900 500 Climbing Moncton Center
Tue 12:58:00 AM 42.8167 -62.7833 76° East 510 587 32,900  Level Moncton Center
Tue 12:59:00 AM 42.8667 -62.6000 70° East 510 587 32,900  Level Moncton Center
Tue 01:00:00 AM 42.9167 -62.4167 70° East 510 587 32,900  Level Moncton Center
Tue 01:01:00 AM 42.9667 -62.2333 70° East 500 575 32,900  Level Moncton Center
Tue 01:02:00 AM 43.0000 -62.0500 76° East 510 587 32,900  Level Moncton Center
Tue 01:03:00 AM 43.0333 -61.8333 78° East 520 598 32,900  Level Moncton Center
Tue 01:04:00 AM 43.0667 -61.6833 73° East 510 587 32,900  Level Moncton Center
Tue 01:05:00 AM 43.1167 -61.4667 72° East 510 587 32,900  Level Moncton Center
Tue 01:06:00 AM 43.1500 -61.2833 76° East 520 598 32,900  Level Moncton Center
Tue 01:07:00 AM 43.2000 -61.1000 69° East 520 598 32,900  Level Moncton Center
Tue 01:08:00 AM 43.2500 -60.9167 69° East 520 598 32,900  Level Moncton Center
Tue 01:09:00 AM 43.2667 -60.7333 83° East 520 598 32,900  Level Moncton Center
Tue 01:10:00 AM 43.3167 -60.5167 72° East 520 598 32,900  Level Moncton Center
Tue 01:11:00 AM 43.3667 -60.3333 69° East 520 598 32,900  Level Moncton Center
Tue 01:12:00 AM 43.4000 -60.1500 76° East 520 598 32,900  Level Moncton Center
Tue 01:12:33 AM 43.4167 -60.0500 77° East 510 587 32,900 17 Level Gander Center
Tue 01:18:02 AM 43.6180 -59.0400 77° East 505 581 33,000 16 Climbing FlightAware ADS-B
Tue 01:18:47 AM 43.6430 -58.9100 75° East 505 581 33,000  Level FlightAware ADS-B
Tue 01:19:42 AM 43.6770 -58.7300 75° East 506 582 33,000  Level FlightAware ADS-B
Tue 01:20:22 AM 43.6970 -58.6230 75° East 506 582 33,000  Level FlightAware ADS-B
Tue 01:21:12 AM 43.7230 -58.4900 75° East 506 582 33,000  Level FlightAware ADS-B
Tue 01:21:52 AM 43.7510 -58.3300 76° East 505 581 33,000  Level FlightAware ADS-B
Tue 01:22:32 AM 43.7720 -58.2230 75° East 505 581 33,000  Level FlightAware ADS-B
Tue 01:23:12 AM 43.7920 -58.1170 75° East 505 581 33,000  Level FlightAware ADS-B
Tue 01:24:02 AM 43.8270 -57.9100 77° East 500 575 33,000  Level FlightAware ADS-B
Tue 01:24:57 AM 43.8560 -57.7500 76° East 500 575 33,000  Level FlightAware ADS-B
Tue 01:25:32 AM 43.8750 -57.6400 76° East 504 580 33,000  Level FlightAware ADS-B
Tue 01:26:17 AM 43.8980 -57.5100 76° East 504 580 33,000  Level FlightAware ADS-B
Tue 01:26:57 AM 43.9170 -57.4030 76° East 504 580 33,000  Level FlightAware ADS-B
Tue 01:27:37 AM 43.9370 -57.2960 75° East 504 580 33,000  Level FlightAware ADS-B
Tue 01:28:27 AM 43.9600 -57.1630 76° East 504 580 33,000  Level FlightAware ADS-B
Tue 01:29:07 AM 43.9800 -57.0560 75° East 504 580 33,000  Level FlightAware ADS-B
Tue 01:29:47 AM 43.9990 -56.9490 76° East 504 580 33,000  Level FlightAware ADS-B
Tue 01:30:27 AM 44.0180 -56.8420 76° East 504 580 33,000  Level FlightAware ADS-B
Tue 01:31:07 AM 44.0370 -56.7350 76° East 504 580 33,000  Level FlightAware ADS-B
Tue 01:31:57 AM 44.0610 -56.6010 76° East 504 580 33,000  Level FlightAware ADS-B
Tue 01:32:37 AM 44.0800 -56.4940 76° East 504 580 33,000  Level FlightAware ADS-B
Tue 01:33:17 AM 44.0990 -56.3870 76° East 504 580 33,000  Level FlightAware ADS-B
Tue 01:33:57 AM 44.1190 -56.2800 75° East 504 580 33,000  Level FlightAware ADS-B
Tue 01:34:37 AM 44.1380 -56.1720 76° East 504 580 33,000  Level FlightAware ADS-B
Tue 01:35:27 AM 44.1620 -56.0380 76° East 504 580 33,000 -85 Level FlightAware ADS-B
Tue 01:35:48 AM 44.1000 -55.6000 76° East 460 529 32,900 -130 Descending Gander Center
Tue 01:36:13 AM 44.1000 -55.5167 90° East 480 552 32,900  Level Moncton Center
Tue 01:37:13 AM 44.1167 -55.3500 82° East 480 552 32,900  Level Moncton Center
Tue 01:39:00 AM 44.1547 -54.9838 82° East  Level FlightAware Approximate
Tue 01:41:32 AM 44.1667 -54.4667 91° East 510 587 32,900  Level Gander Center
Tue 01:42:20 AM 44.1667 -54.3167 90° East 500 575 32,900  Level Moncton Center
Tue 01:43:20 AM 44.1667 -54.1333 90° East 520 598 32,900  Level Moncton Center
Tue 01:44:20 AM 44.1500 -53.9167 96° East 520 598 32,900  Level Moncton Center
Tue 01:45:20 AM 44.1500 -53.7333 90° East 510 587 32,900  Level Moncton Center
Tue 01:46:00 AM 44.1404 -53.5327 91° East  Level FlightAware Approximate
Tue 01:46:20 AM 44.1500 -53.5500 90° East 510 587 32,900  Level Moncton Center
Tue 01:47:20 AM 44.1500 -53.3333 90° East 510 587 32,900  Level Moncton Center
Tue 01:48:20 AM 44.1667 -53.1500 83° East 520 598 32,900  Level Moncton Center
Tue 01:49:20 AM 44.1500 -52.9333 96° East 510 587 32,900  Level Moncton Center
Tue 01:50:13 AM 44.1500 -52.7500 90° East 510 587 32,900  Level Gander Center
Tue 01:50:20 AM 44.1500 -52.7500 90° East 500 575 32,900  Level Moncton Center
Tue 01:50:32 AM 44.1500 -52.6833 90° East 510 587 32,900  Level Gander Center
Tue 01:51:32 AM 44.1500 -52.5000 90° East 510 587 32,900  Level Gander Center
Tue 01:52:32 AM 44.1500 -52.3167 90° East 510 587 32,900  Level Gander Center
Tue 01:53:32 AM 44.1333 -52.1000 96° East 520 598 32,900  Level Gander Center
Tue 01:54:20 AM 44.1167 -51.9333 98° East 520 598 32,900  Level Moncton Center
Tue 01:55:20 AM 44.1167 -51.7500 90° East 510 587 32,900  Level Moncton Center
Tue 01:56:20 AM 44.1000 -51.5333 96° East 510 587 32,900 66 Level Moncton Center
Tue 01:56:51 AM 44.1667 -52.4333 95° East 528 608 33,000  Climbing New York Oceanic (ODAPS)
Tue 01:57:32 AM 44.0833 -51.3000 95° East 520 598 32,900 -59 Descending Gander Center
Tue 01:58:32 AM 44.0667 -51.1167 97° East 510 587 32,900  Level Gander Center
Tue 01:59:32 AM 44.0500 -50.9333 97° East 510 587 32,900 14 Level Gander Center
Tue 02:01:00 AM 44.0346 -50.6293 94° East  Level FlightAware Approximate
Tue 02:05:44 AM 44.0000 -50.0000 71° East 520 598 33,000  Level New York Oceanic (ODAPS)
Tue 02:08:00 AM 44.1887 -49.2189 71° East  Level FlightAware Approximate
Tue 02:09:00 AM 44.2355 -49.0210 72° East  Level FlightAware Approximate
Tue 02:10:00 AM 44.2820 -48.8228 72° East  Level FlightAware Approximate
Tue 02:11:00 AM 44.3281 -48.6242 72° East  Level FlightAware Approximate
Tue 02:12:00 AM 44.3705 -48.4791 72° East 520 598 33,000  Level FlightAware Transoceanic
Tue 02:13:00 AM 44.4154 -48.2877 72° East 520 598 33,000  Level FlightAware Transoceanic
Tue 02:14:00 AM 44.4600 -48.0960 72° East 520 598 33,000  Level FlightAware Transoceanic
Tue 02:15:00 AM 44.5043 -47.9039 72° East 520 598 33,000  Level FlightAware Transoceanic
Tue 02:16:00 AM 44.5482 -47.7116 72° East 520 598 33,000  Level FlightAware Transoceanic
Tue 02:17:00 AM 44.5918 -47.5190 72° East 520 598 33,000  Level FlightAware Transoceanic
Tue 02:18:00 AM 44.6351 -47.3261 73° East 520 598 33,000  Level FlightAware Transoceanic
Tue 02:19:00 AM 44.6780 -47.1329 73° East 520 598 33,000  Level FlightAware Transoceanic
Tue 02:20:00 AM 44.7207 -46.9394 73° East 520 598 33,000  Level FlightAware Transoceanic
Tue 02:21:00 AM 44.7630 -46.7457 73° East 520 598 33,000  Level FlightAware Transoceanic
Tue 02:22:00 AM 44.8049 -46.5517 73° East 520 598 33,000  Level FlightAware Transoceanic
Tue 02:23:00 AM 44.8466 -46.3573 73° East 520 598 33,000  Level FlightAware Transoceanic
Tue 02:24:00 AM 44.8879 -46.1627 73° East 520 598 33,000  Level FlightAware Transoceanic
Tue 02:25:00 AM 44.9289 -45.9678 74° East 520 598 33,000  Level FlightAware Transoceanic
Tue 02:26:00 AM 44.9695 -45.7727 74° East 520 598 33,000  Level FlightAware Transoceanic
Tue 02:27:00 AM 45.0098 -45.5773 74° East 520 598 33,000  Level FlightAware Transoceanic
Tue 02:28:00 AM 45.0498 -45.3816 74° East 520 598 33,000  Level FlightAware Transoceanic
Tue 02:29:00 AM 45.0895 -45.1856 74° East 520 598 33,000  Level FlightAware Transoceanic
Tue 02:30:00 AM 45.1288 -44.9893 74° East 520 598 33,000  Level FlightAware Transoceanic
Tue 02:31:00 AM 45.1678 -44.7928 74° East 520 598 33,000  Level FlightAware Transoceanic
Tue 02:32:00 AM 45.2064 -44.5960 75° East 520 598 33,000  Level FlightAware Transoceanic
Tue 02:33:00 AM 45.2447 -44.3990 75° East 520 598 33,000  Level FlightAware Transoceanic
Tue 02:34:00 AM 45.2827 -44.2017 75° East 520 598 33,000  Level FlightAware Transoceanic
Tue 02:35:00 AM 45.3203 -44.0041 75° East 520 598 33,000  Level FlightAware Transoceanic
Tue 02:36:00 AM 45.3576 -43.8063 75° East 520 598 33,000  Level FlightAware Transoceanic
Tue 02:37:00 AM 45.3945 -43.6081 75° East 520 598 33,000  Level FlightAware Transoceanic
Tue 02:38:00 AM 45.4311 -43.4098 75° East 520 598 33,000  Level FlightAware Transoceanic
Tue 02:39:00 AM 45.4674 -43.2112 75° East 520 598 33,000  Level FlightAware Transoceanic
Tue 02:40:00 AM 45.5033 -43.0123 76° East 520 598 33,000  Level FlightAware Transoceanic
Tue 02:41:00 AM 45.5389 -42.8132 76° East 520 598 33,000  Level FlightAware Transoceanic
Tue 02:42:00 AM 45.5741 -42.6138 76° East 520 598 33,000  Level FlightAware Transoceanic
Tue 02:43:00 AM 45.6090 -42.4142 76° East 520 598 33,000  Level FlightAware Transoceanic
Tue 02:44:00 AM 45.6435 -42.2143 76° East 520 598 33,000  Level FlightAware Transoceanic
Tue 02:45:00 AM 45.6776 -42.0142 76° East 520 598 33,000  Level FlightAware Transoceanic
Tue 02:46:00 AM 45.7115 -41.8138 76° East 520 598 33,000  Level FlightAware Transoceanic
Tue 02:47:00 AM 45.7449 -41.6132 77° East 520 598 33,000  Level FlightAware Transoceanic
Tue 02:48:00 AM 45.7781 -41.4124 77° East 520 598 33,000  Level FlightAware Transoceanic
Tue 02:49:00 AM 45.8108 -41.2113 77° East 520 598 33,000  Level FlightAware Transoceanic
Tue 02:50:00 AM 45.8433 -41.0100 77° East 520 598 33,000  Level FlightAware Transoceanic
Tue 02:51:00 AM 45.8753 -40.8085 77° East 520 598 33,000  Level FlightAware Transoceanic
Tue 02:52:00 AM 45.9070 -40.6067 77° East 520 598 33,000  Level FlightAware Transoceanic
Tue 02:53:00 AM 45.9384 -40.4047 77° East 520 598 33,000  Level FlightAware Transoceanic
Tue 02:54:00 AM 45.9694 -40.2025 78° East 520 598 33,000  Level FlightAware Transoceanic
Tue 02:55:00 AM 46.0000 -40.0000 70° East 520 598 33,000  Level FlightAware Transoceanic
Tue 02:56:00 AM 46.0503 -39.7996 70° East 520 598 33,000  Level FlightAware Transoceanic
Tue 02:57:00 AM 46.1003 -39.5989 70° East 520 598 33,000  Level FlightAware Transoceanic
Tue 02:57:00 AM 46.0000 -40.0000 70° East 532 612 33,000  Level ETMS Enhanced Traffic Management System
Tue 02:58:00 AM 46.1500 -39.3978 70° East 520 598 33,000  Level FlightAware Transoceanic
Tue 02:59:00 AM 46.1993 -39.1964 71° East 520 598 33,000  Level FlightAware Transoceanic
Tue 03:00:00 AM 46.2482 -38.9946 71° East 520 598 33,000  Level FlightAware Transoceanic
Tue 03:01:00 AM 46.2968 -38.7924 71° East 520 598 33,000  Level FlightAware Transoceanic
Tue 03:02:00 AM 46.3450 -38.5899 71° East 520 598 33,000  Level FlightAware Transoceanic
Tue 03:03:00 AM 46.3450 -38.5899 71° East 532 612 33,000  Level FlightAware Transoceanic
Tue 03:04:00 AM 46.3928 -38.3870 71° East 532 612 33,000  Level FlightAware Transoceanic
Tue 03:05:00 AM 46.4403 -38.1838 71° East 532 612 33,000  Level FlightAware Transoceanic
Tue 03:06:00 AM 46.4875 -37.9802 71° East 532 612 33,000  Level FlightAware Transoceanic
Tue 03:07:00 AM 46.5343 -37.7763 72° East 532 612 33,000  Level FlightAware Transoceanic
Tue 03:08:00 AM 46.5807 -37.5720 72° East 532 612 33,000  Level FlightAware Transoceanic
Tue 03:09:00 AM 46.6267 -37.3674 72° East 532 612 33,000  Level FlightAware Transoceanic
Tue 03:10:00 AM 46.6724 -37.1624 72° East 532 612 33,000  Level FlightAware Transoceanic
Tue 03:11:00 AM 46.7177 -36.9571 72° East 532 612 33,000  Level FlightAware Transoceanic
Tue 03:12:00 AM 46.7627 -36.7514 72° East 532 612 33,000  Level FlightAware Transoceanic
Tue 03:13:00 AM 46.8073 -36.5454 73° East 532 612 33,000  Level FlightAware Transoceanic
Tue 03:14:00 AM 46.8515 -36.3390 73° East 532 612 33,000  Level FlightAware Transoceanic
Tue 03:15:00 AM 46.8953 -36.1323 73° East 532 612 33,000  Level FlightAware Transoceanic
Tue 03:16:00 AM 46.9388 -35.9253 73° East 532 612 33,000  Level FlightAware Transoceanic
Tue 03:17:00 AM 46.9819 -35.7179 73° East 532 612 33,000  Level FlightAware Transoceanic
Tue 03:18:00 AM 47.0246 -35.5102 73° East 532 612 33,000  Level FlightAware Transoceanic
Tue 03:19:00 AM 47.0669 -35.3022 73° East 532 612 33,000  Level FlightAware Transoceanic
Tue 03:20:00 AM 47.1089 -35.0938 74° East 532 612 33,000  Level FlightAware Transoceanic
Tue 03:21:00 AM 47.1505 -34.8851 74° East 532 612 33,000  Level FlightAware Transoceanic
Tue 03:22:00 AM 47.1917 -34.6761 74° East 532 612 33,000  Level FlightAware Transoceanic
Tue 03:23:00 AM 47.2325 -34.4668 74° East 532 612 33,000  Level FlightAware Transoceanic
Tue 03:24:00 AM 47.2730 -34.2571 74° East 532 612 33,000  Level FlightAware Transoceanic
Tue 03:25:00 AM 47.3130 -34.0472 74° East 532 612 33,000  Level FlightAware Transoceanic
Tue 03:26:00 AM 47.3527 -33.8369 75° East 532 612 33,000  Level FlightAware Transoceanic
Tue 03:27:00 AM 47.3920 -33.6263 75° East 532 612 33,000  Level FlightAware Transoceanic
Tue 03:28:00 AM 47.4309 -33.4154 75° East 532 612 33,000  Level FlightAware Transoceanic
Tue 03:29:00 AM 47.4694 -33.2041 75° East 532 612 33,000  Level FlightAware Transoceanic
Tue 03:30:00 AM 47.5076 -32.9926 75° East 532 612 33,000  Level FlightAware Transoceanic
Tue 03:31:00 AM 47.5453 -32.7807 75° East 532 612 33,000  Level FlightAware Transoceanic
Tue 03:32:00 AM 47.5826 -32.5686 75° East 532 612 33,000  Level FlightAware Transoceanic
Tue 03:33:00 AM 47.6196 -32.3561 76° East 532 612 33,000  Level FlightAware Transoceanic
Tue 03:34:00 AM 47.6562 -32.1434 76° East 532 612 33,000  Level FlightAware Transoceanic
Tue 03:35:00 AM 47.6923 -31.9303 76° East 532 612 33,000  Level FlightAware Transoceanic
Tue 03:36:00 AM 47.7281 -31.7170 76° East 532 612 33,000  Level FlightAware Transoceanic
Tue 03:37:00 AM 47.7635 -31.5034 76° East 532 612 33,000  Level FlightAware Transoceanic
Tue 03:38:00 AM 47.7985 -31.2894 76° East 532 612 33,000  Level FlightAware Transoceanic
Tue 03:39:00 AM 47.8331 -31.0752 77° East 532 612 33,000  Level FlightAware Transoceanic
Tue 03:40:00 AM 47.8673 -30.8608 77° East 532 612 33,000  Level FlightAware Transoceanic
Tue 03:41:00 AM 47.9011 -30.6460 77° East 532 612 33,000  Level FlightAware Transoceanic
Tue 03:42:00 AM 47.9344 -30.4309 77° East 532 612 33,000  Level FlightAware Transoceanic
Tue 03:43:00 AM 47.9509 -30.2233 83° East  Level Estimated
Tue 03:44:00 AM 47.9670 -30.0155 83° East  Level Estimated
Tue 03:45:00 AM 47.9827 -29.8076 83° East  Level Estimated
Tue 03:46:00 AM 47.9980 -29.5995 84° East  Level Estimated
Tue 03:47:00 AM 48.0129 -29.3914 84° East  Level Estimated
Tue 03:47:00 AM 48.0000 -30.0000 78° East 573 659 33,000  Level ETMS Enhanced Traffic Management System
Tue 03:48:00 AM 48.0275 -29.1831 84° East  Level Estimated
Tue 03:49:00 AM 48.0417 -28.9747 84° East  Level Estimated
Tue 03:50:00 AM 48.0555 -28.7662 84° East  Level Estimated
Tue 03:51:00 AM 48.0690 -28.5576 84° East  Level Estimated
Tue 03:52:00 AM 48.0820 -28.3488 85° East  Level Estimated
Tue 03:53:00 AM 48.0880 -28.7498 84° East  Level Estimated
Tue 03:54:00 AM 48.1013 -28.5410 84° East  Level Estimated
Tue 03:55:00 AM 48.1143 -28.3322 85° East  Level Estimated
Tue 03:56:00 AM 48.1269 -28.1232 85° East  Level Estimated
Tue 03:57:00 AM 48.1391 -27.9141 85° East  Level Estimated
Tue 03:58:00 AM 48.1510 -27.7049 85° East  Level Estimated
Tue 03:59:00 AM 48.1624 -27.4957 85° East  Level Estimated
Tue 04:00:00 AM 48.1735 -27.2863 85° East  Level Estimated
Tue 04:01:00 AM 48.1842 -27.0769 86° East  Level Estimated
Tue 04:02:00 AM 48.1945 -26.8673 86° East  Level Estimated
Tue 04:03:00 AM 48.2044 -26.6577 86° East  Level Estimated
Tue 04:04:00 AM 48.2140 -26.4480 86° East  Level Estimated
Tue 04:05:00 AM 48.2231 -26.2382 86° East  Level Estimated
Tue 04:06:00 AM 48.2319 -26.0284 86° East  Level Estimated
Tue 04:07:00 AM 48.2403 -25.8184 86° East  Level Estimated
Tue 04:08:00 AM 48.2483 -25.6084 87° East  Level Estimated
Tue 04:09:00 AM 48.2560 -25.3984 87° East  Level Estimated
Tue 04:10:00 AM 48.2632 -25.1883 87° East  Level Estimated
Tue 04:11:00 AM 48.2701 -24.9781 87° East  Level Estimated
Tue 04:12:00 AM 48.2766 -24.7679 87° East  Level Estimated
Tue 04:13:00 AM 48.2827 -24.5576 87° East  Level Estimated
Tue 04:14:00 AM 48.2884 -24.3473 88° East  Level Estimated
Tue 04:15:00 AM 48.2938 -24.1369 88° East  Level Estimated
Tue 04:16:00 AM 48.2987 -23.9265 88° East  Level Estimated
Tue 04:17:00 AM 48.3033 -23.7160 88° East  Level Estimated
Tue 04:18:00 AM 48.3075 -23.5056 88° East  Level Estimated
Tue 04:19:00 AM 48.3113 -23.2950 88° East  Level Estimated
Tue 04:20:00 AM 48.3147 -23.0845 89° East  Level Estimated
Tue 04:21:00 AM 48.3177 -22.8739 89° East  Level Estimated
Tue 04:22:00 AM 48.3204 -22.6633 89° East  Level Estimated
Tue 04:23:00 AM 48.3227 -22.4527 89° East  Level Estimated
Tue 04:24:00 AM 48.3245 -22.2421 89° East  Level Estimated
Tue 04:25:00 AM 48.3260 -22.0314 89° East  Level Estimated
Tue 04:26:00 AM 48.3271 -21.8207 89° East  Level Estimated
Tue 04:27:00 AM 48.3279 -21.6101 90° East  Level Estimated
Tue 04:28:00 AM 48.3282 -21.3987 90° East  Level Estimated
Tue 04:29:00 AM 48.3282 -21.1873 90° East  Level Estimated
Tue 04:30:00 AM 48.3278 -20.9759 90° East  Level Estimated
Tue 04:31:00 AM 48.3269 -20.7645 90° East  Level Estimated
Tue 04:32:00 AM 48.3257 -20.5532 90° East  Level Estimated
Tue 04:33:00 AM 48.3241 -20.3418 91° East  Level Estimated
Tue 04:34:00 AM 48.3222 -20.1304 91° East  Level Estimated
Tue 04:35:00 AM 48.3198 -19.9191 91° East  Level Estimated
Tue 04:36:00 AM 48.3170 -19.7078 91° East  Level Estimated
Tue 04:37:00 AM 48.3139 -19.4965 91° East  Level Estimated
Tue 04:38:00 AM 48.3104 -19.2853 91° East  Level Estimated
Tue 04:39:00 AM 48.3064 -19.0741 92° East  Level Estimated
Tue 04:40:00 AM 48.3022 -18.8629 92° East  Level Estimated
Tue 04:41:00 AM 48.2975 -18.6517 92° East  Level Estimated
Tue 04:42:00 AM 48.2924 -18.4406 92° East  Level Estimated
Tue 04:43:00 AM 48.2869 -18.2295 92° East  Level Estimated
Tue 04:44:00 AM 48.2811 -18.0185 92° East  Level Estimated
Tue 04:45:00 AM 48.2748 -17.8076 92° East  Level Estimated
Tue 04:46:00 AM 48.2682 -17.5966 93° East  Level Estimated
Tue 04:47:00 AM 48.2612 -17.3858 93° East  Level Estimated
Tue 04:48:00 AM 48.2538 -17.1750 93° East  Level Estimated
Tue 04:49:00 AM 48.2461 -16.9642 93° East  Level Estimated
Tue 04:50:00 AM 48.2379 -16.7536 93° East  Level Estimated
Tue 04:51:00 AM 48.2294 -16.5429 93° East  Level Estimated
Tue 04:52:00 AM 48.2204 -16.3324 94° East  Level Estimated
Tue 04:53:00 AM 48.2111 -16.1220 94° East  Level Estimated
Tue 04:54:00 AM 48.2014 -15.9116 94° East  Level Estimated
Tue 04:55:00 AM 48.1913 -15.7013 94° East  Level Estimated
Tue 04:56:00 AM 48.1809 -15.4911 94° East  Level Estimated
Tue 04:57:00 AM 48.1700 -15.2809 94° East  Level Estimated
Tue 04:58:00 AM 48.1588 -15.0709 95° East  Level Estimated
Tue 04:59:00 AM 48.1472 -14.8610 95° East  Level Estimated
Tue 05:00:00 AM 48.1352 -14.6511 95° East  Level Estimated
Tue 05:01:00 AM 48.1228 -14.4413 95° East  Level Estimated
Tue 05:02:00 AM 48.1101 -14.2317 95° East  Level Estimated
Tue 05:03:00 AM 48.0969 -14.0222 95° East  Level Estimated
Tue 05:04:00 AM 48.0834 -13.8127 95° East  Level Estimated
Tue 05:05:00 AM 48.0695 -13.6034 96° East  Level Estimated
Tue 05:06:00 AM 48.0552 -13.3942 96° East  Level Estimated
Tue 05:07:00 AM 48.0406 -13.1851 96° East  Level Estimated
Tue 05:08:00 AM 48.0255 -12.9761 96° East  Level Estimated
Tue 05:09:00 AM 48.0101 -12.7673 96° East  Level Estimated
Tue 05:10:00 AM 47.9943 -12.5586 96° East  Level Estimated
Tue 05:11:00 AM 47.9781 -12.3500 97° East  Level Estimated
Tue 05:11:17 AM 48.7460 -8.8840 97° East 556 640 33,000  Level FlightAware ADS-B
Tue 05:11:54 AM 48.7302 -8.6861 97° East 1 1 31,400  Descending FlightAware UK
Tue 05:11:57 AM 48.7340 -8.7210 97° East 556 640 33,000  Climbing FlightAware ADS-B
Tue 05:12:00 AM 47.9616 -12.1415 97° East  Level Estimated
Tue 05:12:12 AM 48.7252 -8.6163 97° East 1 1 31,400  Level FlightAware UK
Tue 05:12:30 AM 48.7203 -8.5464 96° East 482 555 31,400 3,840 Level FlightAware UK
Tue 05:12:37 AM 48.7230 -8.5690 96° East 556 640 33,000  Climbing FlightAware ADS-B
Tue 05:12:54 AM 48.7134 -8.4537 96° East 480 552 31,400 -2,743 Descending FlightAware UK
Tue 05:13:12 AM 48.7081 -8.3842 97° East 480 552 31,400  Level FlightAware UK
Tue 05:13:30 AM 48.7028 -8.3148 97° East 480 552 31,400 3,840 Level FlightAware UK
Tue 05:13:37 AM 48.7050 -8.3300 97° East 554 638 33,000  Climbing FlightAware ADS-B
Tue 05:13:54 AM 48.6958 -8.2223 97° East 478 550 31,400 -2,743 Descending FlightAware UK
Tue 05:14:12 AM 48.6905 -8.1529 97° East 478 550 31,400 4,174 Level FlightAware UK
Tue 05:14:17 AM 48.6930 -8.1810 97° East 554 638 33,000  Climbing FlightAware ADS-B
Tue 05:14:36 AM 48.6835 -8.0604 97° East 480 552 31,400 -2,595 Descending FlightAware UK
Tue 05:14:54 AM 48.6778 -7.9910 97° East 482 555 31,400 4,571 Level FlightAware UK
Tue 05:14:57 AM 48.6800 -8.0320 97° East 547 629 33,000  Climbing FlightAware ADS-B
Tue 05:15:12 AM 48.6621 -7.9254 97° East 482 555 31,400 -2,909 Descending FlightAware UK
Tue 05:15:30 AM 48.6496 -7.8604 106° East 482 555 31,400 3,200 Level FlightAware UK
Tue 05:15:42 AM 48.6460 -7.8610 106° East 543 625 33,000  Climbing FlightAware ADS-B
Tue 05:16:00 AM 48.6278 -7.7515 106° East 480 552 31,400 -2,667 Descending FlightAware UK
Tue 05:16:18 AM 48.6149 -7.6861 107° East 482 555 31,400 4,364 Level FlightAware UK
Tue 05:16:22 AM 48.6170 -7.7150 107° East 540 621 33,000  Climbing FlightAware ADS-B
Tue 05:16:42 AM 48.5984 -7.5988 107° East 482 555 31,400 -2,526 Descending FlightAware UK
Tue 05:17:00 AM 48.5863 -7.5334 106° East 482 555 31,400 3,840 Level FlightAware UK
Tue 05:17:07 AM 48.5860 -7.5520 106° East 538 619 33,000  Climbing FlightAware ADS-B
Tue 05:17:24 AM 48.5689 -7.4470 106° East 482 555 31,400 -2,743 Descending FlightAware UK
Tue 05:17:42 AM 48.5551 -7.3829 108° East 482 555 31,400 4,174 Level FlightAware UK
Tue 05:17:47 AM 48.5560 -7.4130 108° East 532 612 33,000  Climbing FlightAware ADS-B
Tue 05:18:06 AM 48.5362 -7.2981 108° East 480 552 31,400 -2,595 Descending FlightAware UK
Tue 05:18:24 AM 48.5223 -7.2348 108° East 480 552 31,400 4,571 Level FlightAware UK
Tue 05:18:27 AM 48.5260 -7.2780 108° East 533 613 33,000  Climbing FlightAware ADS-B
Tue 05:18:42 AM 48.5085 -7.1714 108° East 478 550 31,400 -2,462 Descending FlightAware UK
Tue 05:19:06 AM 48.4905 -7.0869 108° East 478 550 31,400 3,000 Level FlightAware UK
Tue 05:19:12 AM 48.4910 -7.1130 108° East 530 610 32,900  Climbing FlightAware ADS-B
Tue 05:19:30 AM 48.4726 -7.0025 108° East 476 548 31,400 -2,500 Descending FlightAware UK
Tue 05:19:48 AM 48.4591 -6.9392 108° East 474 545 31,400 4,364 Level FlightAware UK
Tue 05:19:52 AM 48.4630 -6.9830 108° East 530 610 33,000  Climbing FlightAware ADS-B
Tue 05:20:12 AM 48.4410 -6.8542 108° East 474 545 31,400  Descending FlightAware UK
Tue 05:20:27 AM 48.4350 -6.8560 108° East 531 611 33,000  Climbing FlightAware ADS-B
Tue 05:20:30 AM 48.4275 -6.7911 108° East 476 548 31,400 -6,400 Descending FlightAware UK
Tue 05:20:42 AM 48.4184 -6.7489 108° East 474 545 31,400  Level FlightAware UK
Tue 05:21:00 AM 48.4047 -6.6857 108° East 476 548 31,400 2,743 Level FlightAware UK
Tue 05:21:17 AM 48.3980 -6.6830 108° East 533 613 33,000  Climbing FlightAware ADS-B
Tue 05:21:18 AM 48.3911 -6.6225 108° East 478 550 31,400 -5,053 Descending FlightAware UK
Tue 05:21:36 AM 48.3775 -6.5592 108° East 476 548 31,400  Level FlightAware UK
Tue 05:21:54 AM 48.3637 -6.4958 108° East 478 550 31,400 4,571 Level FlightAware UK
Tue 05:21:57 AM 48.3650 -6.5330 108° East 534 615 33,000  Climbing FlightAware ADS-B
Tue 05:22:12 AM 48.3498 -6.4325 108° East 476 548 31,400 -2,909 Descending FlightAware UK
Tue 05:22:30 AM 48.3357 -6.3693 109° East 476 548 31,400 3,200 Level FlightAware UK
Tue 05:22:42 AM 48.3300 -6.3750 109° East 535 616 33,000  Climbing FlightAware ADS-B
Tue 05:23:00 AM 48.3124 -6.2640 109° East 476 548 31,400 -2,000 Descending FlightAware UK
Tue 05:23:18 AM 48.2982 -6.2005 109° East 478 550 31,800 2,507 Climbing FlightAware UK
Tue 05:23:22 AM 48.2990 -6.2360 109° East 33,300 2,939 Climbing FlightAware ADS-B
Tue 05:24:07 AM 48.2600 -6.0660 109° East 542 624 34,200 -194 Climbing FlightAware ADS-B
Tue 05:24:24 AM 48.2463 -5.9669 109° East 482 555 33,100 -1,371 Descending FlightAware UK
Tue 05:24:42 AM 48.2321 -5.9031 109° East 482 555 33,400 4,696 Climbing FlightAware UK
Tue 05:24:47 AM 48.2290 -5.9270 109° East 546 628 34,900  Climbing FlightAware ADS-B
Tue 05:25:12 AM 48.2078 -5.7961 109° East 486 559 33,400 150 Descending FlightAware UK
Tue 05:25:27 AM 48.1960 -5.7820 109° East 547 629 35,000  Climbing FlightAware ADS-B
Tue 05:25:42 AM 48.1831 -5.6878 109° East 486 559 33,400  Descending FlightAware UK
Tue 05:28:02 AM 48.0680 -5.2310 109° East 543 625 35,000 519 Climbing FlightAware ADS-B
Tue 05:28:47 AM 48.0830 -5.2960 289° West 543 625 35,000  Level FlightAware ADS-B
Tue 05:29:27 AM 47.9970 -4.9300 109° East 543 625 35,000  Level FlightAware ADS-B
Tue 05:30:07 AM 47.9630 -4.7890 110° East 542 624 35,000  Level FlightAware ADS-B
Tue 05:30:52 AM 47.9240 -4.6290 110° East 542 624 35,000  Level FlightAware ADS-B
Tue 05:31:32 AM 47.8890 -4.4890 110° East 541 623 35,000  Level FlightAware ADS-B
Tue 05:32:17 AM 47.8510 -4.3360 110° East 540 621 35,000  Level FlightAware ADS-B
Tue 05:33:02 AM 47.8100 -4.1720 110° East 540 621 35,000  Level FlightAware ADS-B
Tue 05:33:57 AM 47.7620 -3.9780 110° East 539 620 35,000  Level FlightAware ADS-B
Tue 05:34:37 AM 47.7290 -3.8490 111° Southeast 538 619 35,000  Level FlightAware ADS-B
Tue 05:35:17 AM 47.6840 -3.7150 116° Southeast 534 615 35,000  Level FlightAware ADS-B
Tue 05:36:02 AM 47.6270 -3.5660 120° Southeast 532 612 35,000  Level FlightAware ADS-B
Tue 05:36:42 AM 47.5800 -3.4420 119° Southeast 531 611 35,000  Level FlightAware ADS-B
Tue 05:37:27 AM 47.5260 -3.3010 120° Southeast 531 611 35,000  Level FlightAware ADS-B
Tue 05:38:07 AM 47.4790 -3.1790 120° Southeast 531 611 35,000  Level FlightAware ADS-B
Tue 05:38:52 AM 47.4210 -3.0290 120° Southeast 532 612 35,000  Level FlightAware ADS-B
Tue 05:39:32 AM 47.3740 -2.9060 119° Southeast 531 611 35,000  Level FlightAware ADS-B
Tue 05:40:12 AM 47.3240 -2.7780 120° Southeast 532 612 35,000  Level FlightAware ADS-B
Tue 05:40:52 AM 47.2750 -2.6520 120° Southeast 531 611 35,000  Level FlightAware ADS-B
Tue 05:41:37 AM 47.2220 -2.5150 120° Southeast 529 609 35,000  Level FlightAware ADS-B
Tue 05:42:17 AM 47.1720 -2.3880 120° Southeast 528 608 35,000  Level FlightAware ADS-B
Tue 05:42:57 AM 47.1240 -2.2670 120° Southeast 529 609 35,000  Level FlightAware ADS-B
Tue 05:43:42 AM 47.0680 -2.1260 120° Southeast 528 608 35,000  Level FlightAware ADS-B
Tue 05:44:27 AM 47.0130 -1.9880 120° Southeast 528 608 35,000  Level FlightAware ADS-B
Tue 05:45:07 AM 46.9630 -1.8620 120° Southeast 529 609 35,000  Level FlightAware ADS-B
Tue 05:45:47 AM 46.9120 -1.7350 120° Southeast 529 609 35,000  Level FlightAware ADS-B
Tue 05:46:32 AM 46.8580 -1.6020 121° Southeast 529 609 35,000  Level FlightAware ADS-B
Tue 05:47:12 AM 46.8080 -1.4780 120° Southeast 528 608 35,000  Level FlightAware ADS-B
Tue 05:47:57 AM 46.7520 -1.3400 121° Southeast 528 608 35,000  Level FlightAware ADS-B
Tue 05:48:37 AM 46.7020 -1.2160 120° Southeast 528 608 35,000  Level FlightAware ADS-B
Tue 05:49:17 AM 46.6520 -1.0950 121° Southeast 527 606 35,000  Level FlightAware ADS-B
Tue 05:50:02 AM 46.6030 -0.9550 117° Southeast 532 612 35,000  Level FlightAware ADS-B
Tue 05:50:57 AM 46.5580 -0.7790 110° East 533 613 35,000  Level FlightAware ADS-B
Tue 05:51:52 AM 46.5100 -0.6060 112° Southeast 533 613 35,000  Level FlightAware ADS-B
Tue 05:52:32 AM 46.4800 -0.4930 111° Southeast 533 613 35,000  Level FlightAware ADS-B
Tue 05:53:12 AM 46.4500 -0.3790 111° Southeast 533 613 35,000  Level FlightAware ADS-B
Tue 05:53:52 AM 46.4200 -0.2660 111° Southeast 533 613 35,000  Level FlightAware ADS-B
Tue 05:54:37 AM 46.3650 -0.0560 111° Southeast 535 616 35,000  Level FlightAware ADS-B
Tue 05:55:22 AM 46.3290 0.0810 111° Southeast 535 616 35,000  Level FlightAware ADS-B
Tue 05:56:02 AM 46.2980 0.1940 112° Southeast 535 616 35,000  Level FlightAware ADS-B
Tue 05:56:42 AM 46.2680 0.3080 111° Southeast 535 616 35,000  Level FlightAware ADS-B
Tue 05:57:32 AM 46.2310 0.4500 111° Southeast 535 616 35,000  Level FlightAware ADS-B
Tue 05:58:12 AM 46.2000 0.5640 111° Southeast 535 616 35,000  Level FlightAware ADS-B
Tue 05:58:52 AM 46.1700 0.6770 111° Southeast 535 616 35,000  Level FlightAware ADS-B
Tue 05:59:32 AM 46.1400 0.7910 111° Southeast 535 616 35,000  Level FlightAware ADS-B
Tue 06:00:12 AM 46.1100 0.9040 111° Southeast 535 616 35,000  Level FlightAware ADS-B
Tue 06:01:02 AM 46.0720 1.0450 111° Southeast 535 616 35,000  Level FlightAware ADS-B
Tue 06:01:42 AM 46.0420 1.1590 111° Southeast 535 616 35,000  Level FlightAware ADS-B
Tue 06:02:17 AM 45.9440 1.4800 114° Southeast 529 609 35,000  Level FlightAware ADS-B
Tue 06:03:07 AM 45.8950 1.6490 113° Southeast 530 610 35,000  Level FlightAware ADS-B
Tue 06:03:47 AM 45.8600 1.7750 112° Southeast 530 610 35,000  Level FlightAware ADS-B
Tue 06:04:32 AM 45.8170 1.9230 113° Southeast 530 610 35,000  Level FlightAware ADS-B
Tue 06:05:12 AM 45.7800 2.0500 113° Southeast 530 610 35,000  Level FlightAware ADS-B
Tue 06:05:52 AM 45.7420 2.1820 112° Southeast 529 609 35,000  Level FlightAware ADS-B
Tue 06:06:37 AM 45.7000 2.3250 113° Southeast 528 608 35,000  Level FlightAware ADS-B
Tue 06:07:17 AM 45.6610 2.4570 113° Southeast 529 609 35,000  Level FlightAware ADS-B
Tue 06:08:02 AM 45.6190 2.5980 113° Southeast 528 608 35,000  Level FlightAware ADS-B
Tue 06:08:42 AM 45.5810 2.7280 113° Southeast 526 605 35,000  Level FlightAware ADS-B
Tue 06:09:22 AM 45.5470 2.8390 114° Southeast 526 605 35,000  Level FlightAware ADS-B
Tue 06:10:02 AM 45.5120 2.9610 112° Southeast 524 603 35,000  Level FlightAware ADS-B
Tue 06:10:57 AM 45.4580 3.1380 113° Southeast 523 602 35,000  Level FlightAware ADS-B
Tue 06:11:37 AM 45.4250 3.2460 113° Southeast 523 602 35,000  Level FlightAware ADS-B
Tue 06:12:27 AM 45.3700 3.4240 114° Southeast 522 601 35,000  Level FlightAware ADS-B
Tue 06:13:02 AM 45.3330 3.5430 114° Southeast 523 602 35,000  Level FlightAware ADS-B
Tue 06:13:47 AM 45.2910 3.6800 114° Southeast 519 597 35,000  Level FlightAware ADS-B
Tue 06:14:27 AM 45.2560 3.8160 110° East 517 595 35,000  Level FlightAware ADS-B
Tue 06:16:22 AM 45.1620 4.1580 111° Southeast 522 601 35,000  Level FlightAware ADS-B
Tue 06:16:32 AM 45.1400 4.1880 136° Southeast 35,000  Level FlightAware ADS-B
Tue 06:17:12 AM 45.0810 4.3140 124° Southeast 525 604 35,000  Level FlightAware ADS-B
Tue 06:18:02 AM 45.0180 4.4480 124° Southeast 523 602 35,000  Level FlightAware ADS-B
Tue 06:18:42 AM 44.9580 4.5740 124° Southeast 523 602 35,000  Level FlightAware ADS-B
Tue 06:19:27 AM 44.9020 4.6900 124° Southeast 523 602 35,000  Level FlightAware ADS-B
Tue 06:20:02 AM 44.8510 4.7970 124° Southeast 524 603 35,000  Level FlightAware ADS-B
Tue 06:20:47 AM 44.7900 4.9240 124° Southeast 523 602 35,000  Level FlightAware ADS-B
Tue 06:21:32 AM 44.7330 5.0420 124° Southeast 519 597 35,000  Level FlightAware ADS-B
Tue 06:22:12 AM 44.6740 5.1620 125° Southeast 524 603 35,000  Level FlightAware ADS-B
Tue 06:22:47 AM 44.6220 5.2550 128° Southeast 525 604 35,000  Level FlightAware ADS-B
Tue 06:23:37 AM 44.5520 5.3950 125° Southeast 518 596 35,000  Level FlightAware ADS-B
Tue 06:24:17 AM 44.4990 5.5000 125° Southeast 517 595 35,000  Level FlightAware ADS-B
Tue 06:25:02 AM 44.4330 5.6290 126° Southeast 522 601 35,000  Level FlightAware ADS-B
Tue 06:25:42 AM 44.3790 5.7320 126° Southeast 522 601 35,000  Level FlightAware ADS-B
Tue 06:26:27 AM 44.3100 5.8640 126° Southeast 522 601 35,000  Level FlightAware ADS-B
Tue 06:27:07 AM 44.2530 5.9710 127° Southeast 520 598 35,000 -71 Level FlightAware ADS-B
Tue 06:27:52 AM 44.1880 6.0950 126° Southeast 520 598 34,900  Descending FlightAware ADS-B
Tue 06:28:27 AM 44.1390 6.1860 127° Southeast 519 597 35,000 75 Climbing FlightAware ADS-B
Tue 06:29:12 AM 44.0770 6.3040 126° Southeast 518 596 35,000  Level FlightAware ADS-B
Tue 06:29:57 AM 44.0120 6.4260 127° Southeast 520 598 35,000  Level FlightAware ADS-B
Tue 06:30:52 AM 43.9360 6.5680 127° Southeast 517 595 35,000  Level FlightAware ADS-B
Tue 06:31:47 AM 43.8520 6.7220 127° Southeast 523 602 35,000  Level FlightAware ADS-B
Tue 06:32:27 AM 43.8030 6.8130 127° Southeast 518 596 35,000  Level FlightAware ADS-B
Tue 06:33:12 AM 43.7270 6.9470 128° Southeast 525 604 35,000  Level FlightAware ADS-B
Tue 06:33:52 AM 43.6590 7.0550 131° Southeast 525 604 35,000  Level FlightAware ADS-B
Tue 06:34:37 AM 43.5880 7.1660 131° Southeast 525 604 35,000  Level FlightAware ADS-B
Tue 06:35:17 AM 43.5250 7.2660 131° Southeast 526 605 35,000  Level FlightAware ADS-B
Tue 06:35:57 AM 43.4630 7.3650 131° Southeast 526 605 35,000  Level FlightAware ADS-B
Tue 06:36:42 AM 43.3880 7.4830 131° Southeast 525 604 35,000  Level FlightAware ADS-B
Tue 06:37:22 AM 43.3290 7.5810 130° Southeast 522 601 35,000 -71 Level FlightAware ADS-B
Tue 06:38:07 AM 43.2720 7.7080 122° Southeast 517 595 34,900  Descending FlightAware ADS-B
Tue 06:38:47 AM 43.2260 7.8260 118° Southeast 517 595 35,000 75 Climbing FlightAware ADS-B
Tue 06:39:27 AM 43.1820 7.9410 118° Southeast 516 594 35,000  Level FlightAware ADS-B
Tue 06:40:12 AM 43.1290 8.0760 118° Southeast 517 595 35,000  Level FlightAware ADS-B
Tue 06:40:52 AM 43.0850 8.1900 118° Southeast 517 595 35,000  Level FlightAware ADS-B
Tue 06:41:32 AM 43.0390 8.3070 118° Southeast 517 595 35,000  Level FlightAware ADS-B
Tue 06:42:17 AM 42.9900 8.4320 118° Southeast 519 597 35,000  Level FlightAware ADS-B
Tue 06:42:57 AM 42.9440 8.5470 119° Southeast 518 596 35,000  Level FlightAware ADS-B
Tue 06:43:42 AM 42.8910 8.6780 119° Southeast 519 597 35,000  Level FlightAware ADS-B
Tue 06:44:22 AM 42.8490 8.7830 119° Southeast 519 597 35,000 -71 Level FlightAware ADS-B
Tue 06:45:07 AM 42.7930 8.9240 118° Southeast 518 596 34,900  Descending FlightAware ADS-B
Tue 06:45:47 AM 42.7500 9.0360 118° Southeast 512 589 35,000 75 Climbing FlightAware ADS-B
Tue 06:46:27 AM 42.7170 9.1530 111° Southeast 510 587 35,000  Level FlightAware ADS-B
Tue 06:47:12 AM 42.6760 9.2930 112° Southeast 511 588 35,000  Level FlightAware ADS-B
Tue 06:47:52 AM 42.6400 9.4140 112° Southeast 511 588 35,000  Level FlightAware ADS-B
Tue 06:48:32 AM 42.6040 9.5310 113° Southeast 508 585 35,000  Level FlightAware ADS-B
Tue 06:49:17 AM 42.5650 9.6630 112° Southeast 506 582 35,000  Level FlightAware ADS-B
Tue 06:49:57 AM 42.5310 9.7810 111° Southeast 505 581 35,000  Level FlightAware ADS-B
Tue 06:50:42 AM 42.4920 9.9110 112° Southeast 503 579 35,000  Level FlightAware ADS-B
Tue 06:51:22 AM 42.4570 10.0290 112° Southeast 501 577 35,000  Level FlightAware ADS-B
Tue 06:52:07 AM 42.4180 10.1580 112° Southeast 500 575 35,000  Level FlightAware ADS-B
Tue 06:52:47 AM 42.3870 10.2640 112° Southeast 498 573 35,000  Level FlightAware ADS-B
Tue 06:53:32 AM 42.3440 10.4060 112° Southeast 499 574 35,000  Level FlightAware ADS-B
Tue 06:54:12 AM 42.3100 10.5210 112° Southeast 497 572 35,000  Level FlightAware ADS-B
Tue 06:54:52 AM 42.2760 10.6320 112° Southeast 496 571 35,000  Level FlightAware ADS-B
Tue 06:55:37 AM 42.2330 10.7610 114° Southeast 499 574 35,000  Level FlightAware ADS-B
Tue 06:56:17 AM 42.1740 10.8580 129° Southeast 504 580 35,000  Level FlightAware ADS-B
Tue 06:57:02 AM 42.1090 10.9670 129° Southeast 504 580 35,000 -71 Level FlightAware ADS-B
Tue 06:57:42 AM 42.0550 11.0620 127° Southeast 498 573 34,900 -75 Descending FlightAware ADS-B
Tue 06:58:22 AM 41.9990 11.1620 127° Southeast 497 572 34,900 71 Level FlightAware ADS-B
Tue 06:59:07 AM 41.9390 11.2700 127° Southeast 500 575 35,000  Climbing FlightAware ADS-B
Tue 06:59:47 AM 41.8800 11.3690 129° Southeast 494 568 34,900  Descending FlightAware ADS-B
Tue 07:00:27 AM 41.8220 11.4640 129° Southeast 492 566 35,000  Climbing FlightAware ADS-B
Tue 07:01:12 AM 41.7570 11.5720 129° Southeast 489 563 34,900  Descending FlightAware ADS-B
Tue 07:01:52 AM 41.7010 11.6650 129° Southeast 492 566 35,000 71 Climbing FlightAware ADS-B
Tue 07:02:37 AM 41.6350 11.7730 129° Southeast 489 563 35,000  Level FlightAware ADS-B
Tue 07:03:17 AM 41.5790 11.8650 129° Southeast 490 564 35,000  Level FlightAware ADS-B
Tue 07:03:57 AM 41.5210 11.9610 129° Southeast 491 565 35,000  Level FlightAware ADS-B
Tue 07:04:37 AM 41.4660 12.0500 129° Southeast 491 565 35,000 -71 Level FlightAware ADS-B
Tue 07:05:22 AM 41.4030 12.1530 129° Southeast 487 560 34,900  Descending FlightAware ADS-B
Tue 07:06:07 AM 41.3350 12.2640 129° Southeast 487 560 35,000  Climbing FlightAware ADS-B
Tue 07:06:47 AM 41.2770 12.3580 129° Southeast 487 560 34,900  Descending FlightAware ADS-B
Tue 07:07:27 AM 41.2180 12.4530 130° Southeast 488 562 35,000  Climbing FlightAware ADS-B
Tue 07:08:12 AM 41.1530 12.5580 129° Southeast 488 562 34,900  Descending FlightAware ADS-B
Tue 07:08:52 AM 41.0950 12.6510 130° Southeast 487 560 35,000 71 Climbing FlightAware ADS-B
Tue 07:09:37 AM 41.0340 12.7530 128° Southeast 487 560 35,000  Level FlightAware ADS-B
Tue 07:10:12 AM 40.9840 12.8290 131° Southeast 488 562 35,000 -63 Level FlightAware ADS-B
Tue 07:11:12 AM 40.9080 12.9590 128° Southeast 496 571 34,900  Descending FlightAware ADS-B
Tue 07:11:57 AM 40.8500 13.0900 120° Southeast 499 574 35,000 75 Climbing FlightAware ADS-B
Tue 07:12:32 AM 40.8160 13.1720 119° Southeast 499 574 35,000  Level FlightAware ADS-B
Tue 07:13:17 AM 40.7630 13.3270 114° Southeast 498 573 35,000  Level FlightAware ADS-B
Tue 07:13:57 AM 40.7290 13.4210 115° Southeast 497 572 35,000  Level FlightAware ADS-B
Tue 07:14:42 AM 40.6780 13.5660 115° Southeast 499 574 35,000  Level FlightAware ADS-B
Tue 07:15:27 AM 40.6370 13.6800 115° Southeast 499 574 35,000  Level FlightAware ADS-B
Tue 07:16:07 AM 40.5950 13.7960 115° Southeast 500 575 35,000  Level FlightAware ADS-B
Tue 07:16:47 AM 40.5560 13.9040 115° Southeast 500 575 35,000  Level FlightAware ADS-B
Tue 07:17:27 AM 40.5160 14.0140 116° Southeast 500 575 35,000  Level FlightAware ADS-B
Tue 07:18:12 AM 40.4700 14.1400 116° Southeast 500 575 35,000  Level FlightAware ADS-B
Tue 07:18:52 AM 40.4300 14.2500 116° Southeast 501 577 35,000  Level FlightAware ADS-B
Tue 07:19:37 AM 40.3850 14.3720 116° Southeast 501 577 35,000  Level FlightAware ADS-B
Tue 07:20:17 AM 40.3450 14.4790 116° Southeast 502 578 35,000  Level FlightAware ADS-B
Tue 07:21:02 AM 40.2990 14.6050 116° Southeast 502 578 35,000  Level FlightAware ADS-B
Tue 07:21:42 AM 40.2570 14.7160 116° Southeast 503 579 35,000  Level FlightAware ADS-B
Tue 07:22:22 AM 40.2150 14.8270 116° Southeast 504 580 35,000  Level FlightAware ADS-B
Tue 07:23:07 AM 40.1710 14.9460 116° Southeast 506 582 35,000  Level FlightAware ADS-B
Tue 07:23:47 AM 40.1300 15.0560 116° Southeast 507 583 35,000  Level FlightAware ADS-B
Tue 07:24:32 AM 40.0810 15.1840 117° Southeast 508 585 35,000  Level FlightAware ADS-B
Tue 07:25:12 AM 40.0390 15.2950 116° Southeast 507 583 35,000 -71 Level FlightAware ADS-B
Tue 07:25:57 AM 39.9940 15.4120 117° Southeast 506 582 34,900  Descending FlightAware ADS-B
Tue 07:26:37 AM 39.9520 15.5220 116° Southeast 506 582 35,000 71 Climbing FlightAware ADS-B
Tue 07:27:22 AM 39.9030 15.6490 117° Southeast 506 582 35,000 -71 Level FlightAware ADS-B
Tue 07:28:02 AM 39.8620 15.7550 117° Southeast 506 582 34,900  Descending FlightAware ADS-B
Tue 07:28:42 AM 39.8190 15.8660 117° Southeast 506 582 35,000  Climbing FlightAware ADS-B
Tue 07:29:27 AM 39.7730 15.9850 117° Southeast 504 580 34,900  Descending FlightAware ADS-B
Tue 07:30:07 AM 39.7310 16.0940 117° Southeast 503 579 35,000  Climbing FlightAware ADS-B
Tue 07:30:52 AM 39.6830 16.2160 117° Southeast 501 577 34,900  Descending FlightAware ADS-B
Tue 07:31:32 AM 39.6400 16.3240 117° Southeast 503 579 35,000 75 Climbing FlightAware ADS-B
Tue 07:32:12 AM 39.5990 16.4300 117° Southeast 503 579 35,000  Level FlightAware ADS-B
Tue 07:32:57 AM 39.5520 16.5480 117° Southeast 504 580 35,000  Level FlightAware ADS-B
Tue 07:33:37 AM 39.5080 16.6570 118° Southeast 505 581 35,000  Level FlightAware ADS-B
Tue 07:34:22 AM 39.4610 16.7760 117° Southeast 506 582 35,000  Level FlightAware ADS-B
Tue 07:35:02 AM 39.4160 16.8860 118° Southeast 507 583 35,000  Level FlightAware ADS-B
Tue 07:35:42 AM 39.3750 16.9900 117° Southeast 508 585 35,000  Level FlightAware ADS-B
Tue 07:36:27 AM 39.3280 17.1060 118° Southeast 507 583 35,000  Level FlightAware ADS-B
Tue 07:37:07 AM 39.2860 17.2090 118° Southeast 506 582 35,000  Level FlightAware ADS-B
Tue 07:37:47 AM 39.2400 17.3220 118° Southeast 506 582 35,000  Level FlightAware ADS-B
Tue 07:38:32 AM 39.1910 17.4410 118° Southeast 507 583 35,000  Level FlightAware ADS-B
Tue 07:39:12 AM 39.1470 17.5490 118° Southeast 506 582 35,000  Level FlightAware ADS-B
Tue 07:39:52 AM 39.1170 17.6220 118° Southeast 506 582 35,000  Level FlightAware ADS-B
Tue 07:40:37 AM 39.0680 17.7400 118° Southeast 505 581 35,000  Level FlightAware ADS-B
Tue 07:41:17 AM 39.0220 17.8510 118° Southeast 506 582 35,000  Level FlightAware ADS-B
Tue 07:42:02 AM 38.9730 17.9690 118° Southeast 506 582 35,000  Level FlightAware ADS-B
Tue 07:42:42 AM 38.9270 18.0780 118° Southeast 506 582 35,000  Level FlightAware ADS-B
Tue 07:43:37 AM 38.8710 18.2120 118° Southeast 506 582 35,000  Level FlightAware ADS-B
Tue 07:44:22 AM 38.8170 18.3400 118° Southeast 507 583 35,000  Level FlightAware ADS-B
Tue 07:45:02 AM 38.7710 18.4480 119° Southeast 508 585 35,000  Level FlightAware ADS-B
Tue 07:45:42 AM 38.7240 18.5580 119° Southeast 508 585 35,000  Level FlightAware ADS-B
Tue 07:46:22 AM 38.6760 18.6700 119° Southeast 509 586 35,000  Level FlightAware ADS-B
Tue 07:47:07 AM 38.6370 18.7700 117° Southeast 512 589 35,000  Level FlightAware ADS-B
Tue 07:47:47 AM 38.6000 18.8870 112° Southeast 512 589 35,000  Level FlightAware ADS-B
Tue 07:48:32 AM 38.5640 19.0130 110° East 513 590 35,000  Level FlightAware ADS-B
Tue 07:49:12 AM 38.5370 19.1100 110° East 513 590 35,000  Level FlightAware ADS-B
Tue 07:49:52 AM 38.5090 19.2070 110° East 513 590 35,000  Level FlightAware ADS-B
Tue 07:50:37 AM 38.4600 19.3620 112° Southeast 511 588 35,000  Level FlightAware ADS-B
Tue 07:51:17 AM 38.4250 19.4760 111° Southeast 511 588 35,000  Level FlightAware ADS-B
Tue 07:52:02 AM 38.3830 19.6150 111° Southeast 511 588 35,000  Level FlightAware ADS-B
Tue 07:52:42 AM 38.3510 19.7200 111° Southeast 510 587 35,000  Level FlightAware ADS-B
Tue 07:53:22 AM 38.3170 19.8330 111° Southeast 510 587 35,000  Level FlightAware ADS-B
Tue 07:54:02 AM 38.2810 19.9480 112° Southeast 512 589 35,000  Level FlightAware ADS-B
Tue 07:54:47 AM 38.2300 20.1130 111° Southeast 511 588 35,000  Level FlightAware ADS-B
Tue 07:55:32 AM 38.1920 20.2360 111° Southeast 509 586 35,000 282 Level FlightAware ADS-B
Tue 07:56:12 AM 38.1570 20.3480 112° Southeast 510 587 35,400 988 Climbing FlightAware ADS-B
Tue 07:56:57 AM 38.1170 20.4750 112° Southeast 512 589 36,400 1,129 Climbing FlightAware ADS-B
Tue 07:57:37 AM 38.0820 20.5860 112° Southeast 512 589 37,000 450 Climbing FlightAware ADS-B
Tue 07:58:17 AM 38.0460 20.7000 112° Southeast 511 588 37,000 -71 Level FlightAware ADS-B
Tue 07:59:02 AM 38.0110 20.8150 111° Southeast 511 588 36,900  Descending FlightAware ADS-B
Tue 07:59:42 AM 37.9710 20.9350 113° Southeast 509 586 37,000 63 Climbing FlightAware ADS-B
Tue 08:00:37 AM 37.9220 21.0860 112° Southeast 509 586 37,000  Level FlightAware ADS-B
Tue 08:01:22 AM 37.8830 21.2060 112° Southeast 509 586 37,000  Level FlightAware ADS-B
Tue 08:02:02 AM 37.8460 21.3190 112° Southeast 510 587 37,000  Level FlightAware ADS-B
Tue 08:02:47 AM 37.8050 21.4450 112° Southeast 511 588 37,000  Level FlightAware ADS-B
Tue 08:03:27 AM 37.7690 21.5550 112° Southeast 512 589 37,000  Level FlightAware ADS-B
Tue 08:04:07 AM 37.7340 21.6620 112° Southeast 513 590 37,000  Level FlightAware ADS-B
Tue 08:04:52 AM 37.6920 21.7860 113° Southeast 515 593 37,000  Level FlightAware ADS-B
Tue 08:05:32 AM 37.6540 21.9000 113° Southeast 515 593 37,000  Level FlightAware ADS-B
Tue 08:06:12 AM 37.6170 22.0120 113° Southeast 516 594 37,000  Level FlightAware ADS-B
Tue 08:06:57 AM 37.5760 22.1340 113° Southeast 517 595 37,000  Level FlightAware ADS-B
Tue 08:07:37 AM 37.5390 22.2430 113° Southeast 517 595 37,000  Level FlightAware ADS-B
Tue 08:08:22 AM 37.4960 22.3710 113° Southeast 518 596 37,000  Level FlightAware ADS-B
Tue 08:09:02 AM 37.4580 22.4820 113° Southeast 518 596 37,000  Level FlightAware ADS-B
Tue 08:09:47 AM 37.4140 22.6090 114° Southeast 519 597 37,000  Level FlightAware ADS-B
Tue 08:10:27 AM 37.3780 22.7150 113° Southeast 520 598 37,000  Level FlightAware ADS-B
Tue 08:11:07 AM 37.3380 22.8310 113° Southeast 521 600 37,000  Level FlightAware ADS-B
Tue 08:11:52 AM 37.2960 22.9540 113° Southeast 522 601 37,000  Level FlightAware ADS-B
Tue 08:12:32 AM 37.2580 23.0620 114° Southeast 523 602 37,000  Level FlightAware ADS-B
Tue 08:13:17 AM 37.2130 23.1920 113° Southeast 524 603 37,000  Level FlightAware ADS-B
Tue 08:13:57 AM 37.1740 23.3040 114° Southeast 524 603 37,000  Level FlightAware ADS-B
Tue 08:14:42 AM 37.1310 23.4260 114° Southeast 523 602 37,000  Level FlightAware ADS-B
Tue 08:15:22 AM 37.0930 23.5360 113° Southeast 524 603 37,000  Level FlightAware ADS-B
Tue 08:16:07 AM 37.0460 23.6660 114° Southeast 525 604 37,000  Level FlightAware ADS-B
Tue 08:16:47 AM 37.0070 23.7750 114° Southeast 525 604 37,000  Level FlightAware ADS-B
Tue 08:17:27 AM 36.9680 23.8850 114° Southeast 525 604 37,000  Level FlightAware ADS-B
Tue 08:18:12 AM 36.9240 24.0080 114° Southeast 525 604 37,000  Level FlightAware ADS-B
Tue 08:18:52 AM 36.8840 24.1180 114° Southeast 527 606 37,000  Level FlightAware ADS-B
Tue 08:19:37 AM 36.8370 24.2480 114° Southeast 527 606 37,000  Level FlightAware ADS-B
Tue 08:20:17 AM 36.7980 24.3580 114° Southeast 527 606 37,000  Level FlightAware ADS-B
Tue 08:21:02 AM 36.7530 24.4820 114° Southeast 527 606 37,000  Level FlightAware ADS-B
Tue 08:21:42 AM 36.7140 24.5900 114° Southeast 526 605 37,000  Level FlightAware ADS-B
Tue 08:22:22 AM 36.6730 24.7000 115° Southeast 526 605 37,000  Level FlightAware ADS-B
Tue 08:23:07 AM 36.6270 24.8260 114° Southeast 524 603 37,000  Level FlightAware ADS-B
Tue 08:23:42 AM 36.5920 24.9220 114° Southeast 524 603 37,000 -75 Level FlightAware ADS-B
Tue 08:24:27 AM 36.5460 25.0460 115° Southeast 524 603 36,900  Descending FlightAware ADS-B
Tue 08:25:07 AM 36.5060 25.1550 115° Southeast 524 603 37,000 71 Climbing FlightAware ADS-B
Tue 08:25:52 AM 36.4600 25.2780 115° Southeast 524 603 37,000  Level FlightAware ADS-B
Tue 08:26:37 AM 36.4190 25.3900 114° Southeast 525 604 37,000  Level FlightAware ADS-B
Tue 08:27:12 AM 36.3790 25.4940 116° Southeast 524 603 37,000 -71 Level FlightAware ADS-B
Tue 08:28:02 AM 36.3270 25.6330 115° Southeast 524 603 36,900  Descending FlightAware ADS-B
Tue 08:28:42 AM 36.2870 25.7390 115° Southeast 524 603 37,000 75 Climbing FlightAware ADS-B
Tue 08:29:22 AM 36.2500 25.8390 115° Southeast 525 604 37,000 -71 Level FlightAware ADS-B
Tue 08:30:07 AM 36.1980 25.9750 115° Southeast 525 604 36,900  Descending FlightAware ADS-B
Tue 08:30:47 AM 36.1600 26.0750 115° Southeast 524 603 37,000 71 Climbing FlightAware ADS-B
Tue 08:31:32 AM 36.1120 26.2020 115° Southeast 526 605 37,000  Level FlightAware ADS-B
Tue 08:32:02 AM 36.0820 26.2810 115° Southeast 529 609 37,000  Level FlightAware ADS-B
Tue 08:32:47 AM 36.0400 26.3910 115° Southeast 529 609 37,000  Level FlightAware ADS-B
Tue 08:33:37 AM 35.9960 26.5070 115° Southeast 529 609 37,000  Level FlightAware ADS-B
Tue 08:34:27 AM 35.9310 26.6750 115° Southeast 528 608 37,000  Level FlightAware ADS-B
Tue 08:35:12 AM 35.8810 26.8030 116° Southeast 531 611 37,000  Level FlightAware ADS-B
Tue 08:35:57 AM 35.8320 26.9300 115° Southeast 533 613 37,000  Level FlightAware ADS-B
Tue 08:36:47 AM 35.7830 27.0560 116° Southeast 534 615 37,000  Level FlightAware ADS-B
Tue 08:37:27 AM 35.7480 27.1490 115° Southeast 534 615 37,000  Level FlightAware ADS-B
Tue 08:38:17 AM 35.7040 27.2670 115° Southeast 534 615 37,000  Level FlightAware ADS-B
Tue 08:38:57 AM 35.6680 27.3600 115° Southeast 534 615 37,000  Level FlightAware ADS-B
Tue 08:39:37 AM 35.6330 27.4540 115° Southeast 534 615 37,000  Level FlightAware ADS-B
Tue 08:40:17 AM 35.5970 27.5480 115° Southeast 534 615 37,000  Level FlightAware ADS-B
Tue 08:40:57 AM 35.5620 27.6410 115° Southeast 534 615 37,000  Level FlightAware ADS-B
Tue 08:41:47 AM 35.4550 27.8850 118° Southeast 536 617 37,000  Level FlightAware ADS-B
Tue 08:42:27 AM 35.4110 27.9960 116° Southeast 538 619 37,000  Level FlightAware ADS-B
Tue 08:43:07 AM 35.3660 28.1070 116° Southeast 538 619 37,000  Level FlightAware ADS-B
Tue 08:43:47 AM 35.3230 28.2150 116° Southeast 539 620 37,000  Level FlightAware ADS-B
Tue 08:44:32 AM 35.2710 28.3420 117° Southeast 540 621 37,000  Level FlightAware ADS-B
Tue 08:45:17 AM 35.2240 28.4600 116° Southeast 540 621 37,000  Level FlightAware ADS-B
Tue 08:45:57 AM 35.1790 28.5710 116° Southeast 540 621 37,000  Level FlightAware ADS-B
Tue 08:46:32 AM 35.1420 28.6600 117° Southeast 540 621 37,000  Level FlightAware ADS-B
Tue 08:47:12 AM 35.0950 28.7740 117° Southeast 541 623 37,000  Level FlightAware ADS-B
Tue 08:48:02 AM 35.0370 28.9160 116° Southeast 542 624 37,000  Level FlightAware ADS-B
Tue 08:48:47 AM 34.9880 29.0360 116° Southeast 542 624 37,000  Level FlightAware ADS-B
Tue 08:49:27 AM 34.9430 29.1450 117° Southeast 542 624 37,000  Level FlightAware ADS-B
Tue 08:50:22 AM 34.8850 29.2880 116° Southeast 542 624 37,000  Level FlightAware ADS-B
Tue 08:51:07 AM 34.8350 29.4040 118° Southeast 541 623 37,000  Level FlightAware ADS-B
Tue 08:51:47 AM 34.7900 29.5140 116° Southeast 539 620 37,000  Level FlightAware ADS-B
Tue 08:52:27 AM 34.7430 29.6250 117° Southeast 538 619 37,000  Level FlightAware ADS-B
Tue 08:53:12 AM 34.6920 29.7480 117° Southeast 537 618 37,000  Level FlightAware ADS-B
Tue 08:53:52 AM 34.6480 29.8520 117° Southeast 536 617 37,000  Level FlightAware ADS-B
Tue 08:54:37 AM 34.6000 29.9670 117° Southeast 535 616 37,000  Level FlightAware ADS-B
Tue 08:55:07 AM 34.5620 30.0530 118° Southeast 535 616 37,000  Level FlightAware ADS-B
Tue 08:55:57 AM 34.4980 30.1860 120° Southeast 529 609 37,000  Level FlightAware ADS-B
Tue 08:56:42 AM 34.4420 30.3040 120° Southeast 528 608 37,000  Level FlightAware ADS-B
Tue 08:57:22 AM 34.3930 30.4080 120° Southeast 527 606 37,000  Level FlightAware ADS-B
Tue 08:58:07 AM 34.3380 30.5240 120° Southeast 526 605 37,000  Level FlightAware ADS-B
Tue 08:58:47 AM 34.2870 30.6310 120° Southeast 526 605 37,000  Level FlightAware ADS-B
Tue 09:00:12 AM 34.1890 30.8360 120° Southeast 524 603 37,000  Level FlightAware ADS-B
Tue 09:00:52 AM 34.1370 30.9420 121° Southeast 523 602 37,000  Level FlightAware ADS-B
Tue 09:01:37 AM 34.0850 31.0500 120° Southeast 522 601 37,000 -71 Level FlightAware ADS-B
Tue 09:02:17 AM 34.0340 31.1570 120° Southeast 522 601 36,900  Descending FlightAware ADS-B
Tue 09:02:57 AM 33.9830 31.2600 121° Southeast 523 602 37,000 71 Climbing FlightAware ADS-B
Tue 09:03:42 AM 33.9280 31.3730 120° Southeast 524 603 37,000  Level FlightAware ADS-B
Tue 09:04:22 AM 33.8770 31.4770 121° Southeast 524 603 37,000  Level FlightAware ADS-B
Tue 09:05:07 AM 33.8200 31.5930 121° Southeast 523 602 37,000  Level FlightAware ADS-B
Tue 09:05:47 AM 33.7700 31.6950 121° Southeast 522 601 37,000  Level FlightAware ADS-B
Tue 09:06:27 AM 33.7200 31.7950 121° Southeast 521 600 37,000  Level FlightAware ADS-B
Tue 09:07:12 AM 33.6630 31.9100 121° Southeast 520 598 37,000 -67 Level FlightAware ADS-B
Tue 09:07:57 AM 33.6080 32.0210 121° Southeast 520 598 36,900  Descending FlightAware ADS-B
Tue 09:08:47 AM 33.5500 32.1360 121° Southeast 521 600 37,000 57 Climbing FlightAware ADS-B
Tue 09:09:42 AM 33.4820 32.2720 121° Southeast 521 600 37,000 -60 Level FlightAware ADS-B
Tue 09:10:27 AM 33.4260 32.3840 121° Southeast 519 597 36,900  Descending FlightAware ADS-B
Tue 09:11:07 AM 33.3740 32.4860 121° Southeast 517 595 37,000 -141 Climbing FlightAware ADS-B
Tue 09:11:52 AM 33.3180 32.5970 121° Southeast 513 590 36,700 -1,271 Descending FlightAware ADS-B
Tue 09:12:32 AM 33.2690 32.6940 121° Southeast 508 585 35,200 -2,240 Descending FlightAware ADS-B
Tue 09:13:07 AM 33.2290 32.7720 121° Southeast 503 579 33,900 -2,325 Descending FlightAware ADS-B
Tue 09:13:52 AM 33.1690 32.8900 121° Southeast 499 574 32,100 -2,333 Descending FlightAware ADS-B
Tue 09:14:37 AM 33.1150 32.9960 121° Southeast 489 563 30,400 -2,133 Descending FlightAware ADS-B
Tue 09:15:22 AM 33.0640 33.0930 122° Southeast 479 551 28,900 -2,047 Descending FlightAware ADS-B
Tue 09:16:02 AM 33.0170 33.1850 121° Southeast 465 535 27,500 -2,080 Descending FlightAware ADS-B
Tue 09:16:37 AM 32.9770 33.2620 122° Southeast 453 521 26,300 -1,976 Descending FlightAware ADS-B
Tue 09:17:27 AM 32.9220 33.3680 122° Southeast 440 506 24,700 -1,933 Descending FlightAware ADS-B
Tue 09:18:07 AM 32.8790 33.4500 122° Southeast 430 495 23,400 -1,906 Descending FlightAware ADS-B
Tue 09:18:52 AM 32.8330 33.5390 122° Southeast 419 482 22,000 -1,906 Descending FlightAware ADS-B
Tue 09:19:32 AM 32.7930 33.6140 122° Southeast 413 475 20,700 -1,875 Descending FlightAware ADS-B
Tue 09:20:12 AM 32.7530 33.6910 122° Southeast 405 466 19,500 -1,835 Descending FlightAware ADS-B
Tue 09:20:57 AM 32.7080 33.7760 122° Southeast 399 459 18,100 -1,835 Descending FlightAware ADS-B
Tue 09:21:37 AM 32.6680 33.8520 122° Southeast 393 452 16,900 -1,765 Descending FlightAware ADS-B
Tue 09:22:22 AM 32.6240 33.9340 122° Southeast 388 447 15,600 -1,765 Descending FlightAware ADS-B
Tue 09:23:02 AM 32.5860 34.0050 122° Southeast 382 440 14,400 -1,800 Descending FlightAware ADS-B
Tue 09:23:42 AM 32.5490 34.0750 122° Southeast 370 426 13,200 -1,694 Descending FlightAware ADS-B
Tue 09:24:27 AM 32.5100 34.1470 123° Southeast 355 409 12,000 -1,694 Descending FlightAware ADS-B
Tue 09:25:07 AM 32.4660 34.2050 132° Southeast 329 379 10,800 -1,341 Descending FlightAware ADS-B
Tue 09:25:52 AM 32.4210 34.2590 135° Southeast 288 331 10,100 -943 Descending FlightAware ADS-B
Tue 09:26:17 AM 32.3970 34.2860 136° Southeast 275 316 9,700 -1,050 Descending FlightAware ADS-B
Tue 09:26:32 AM 32.3840 34.3000 138° Southeast 281 323 9,400 -1,200 Descending FlightAware ADS-B
Tue 09:27:02 AM 32.3540 34.3360 135° Southeast 284 327 8,800 -771 Descending FlightAware ADS-B
Tue 09:27:42 AM 32.3200 34.3750 136° Southeast 278 320 8,500 -257 Descending FlightAware ADS-B
Tue 09:28:12 AM 32.2970 34.4030 134° Southeast 278 320 8,500  Level FlightAware ADS-B
Tue 09:28:32 AM 32.2810 34.4210 136° Southeast 278 320 8,500  Level FlightAware ADS-B
Tue 09:28:52 AM 32.2660 34.4390 135° Southeast 278 320 8,500  Level FlightAware ADS-B
Tue 09:29:12 AM 32.2500 34.4580 135° Southeast 278 320 8,500  Level FlightAware ADS-B
Tue 09:31:00 AM 32.0895 34.6898 125° Southeast  Level FlightAware Approximate
Tue 09:32:00 AM 32.0195 34.8342 125° Southeast  Level FlightAware Approximate
Tue 09:33:00 AM 32.0000 34.8667 125° Southeast  Level FlightAware Approximate
Tue 09:34:00 AM 32.0095 34.8769 125° Southeast  Level Estimated
Tue 09:35:00 AM 32.0095 34.8769 125° Southeast  Level Estimated
Tue 09:36:00 AM 32.0095 34.8769 125° Southeast  Level Estimated
Tue 09:37:00 AM 32.0095 34.8769 125° Southeast  Level Estimated
Tue 09:38:00 AM 32.0095 34.8769 125° Southeast  Level Estimated
Tue 09:39:00 AM 32.0095 34.8769 125° Southeast  Level Estimated
Tue 09:40:00 AM 32.0095 34.8769 125° Southeast  Level Estimated
Tue 09:41:00 AM 32.0095 34.8769 125° Southeast  Level Estimated

Login

Don't have an account? Register now (free) for customized features, flight alerts, and more!